createdAt,value
2019-01-27T00:00:43.944Z,989.69
2019-01-27T00:01:43.942Z,989.67
2019-01-27T00:02:43.921Z,989.58
2019-01-27T00:03:43.913Z,989.59
2019-01-27T00:04:43.899Z,989.50
2019-01-27T00:05:43.888Z,989.55
2019-01-27T00:06:43.893Z,989.46
2019-01-27T00:07:43.866Z,989.49
2019-01-27T00:08:43.857Z,989.38
2019-01-27T00:09:43.848Z,989.36
2019-01-27T00:10:43.834Z,989.34
2019-01-27T00:11:43.824Z,989.34
2019-01-27T00:12:43.822Z,989.34
2019-01-27T00:13:43.802Z,989.26
2019-01-27T00:14:43.802Z,989.27
2019-01-27T00:15:43.778Z,989.21
2019-01-27T00:16:43.769Z,989.20
2019-01-27T00:17:43.768Z,989.15
2019-01-27T00:18:43.744Z,989.16
2019-01-27T00:19:43.733Z,989.13
2019-01-27T00:20:43.728Z,989.13
2019-01-27T00:21:43.713Z,989.10
2019-01-27T00:22:43.708Z,989.06
2019-01-27T00:23:43.690Z,989.06
2019-01-27T00:24:43.678Z,989.09
2019-01-27T00:25:43.666Z,989.07
2019-01-27T00:26:43.655Z,989.03
2019-01-27T00:27:43.652Z,988.97
2019-01-27T00:28:43.672Z,989.01
2019-01-27T00:29:43.623Z,988.93
2019-01-27T00:30:43.610Z,988.93
2019-01-27T00:31:43.598Z,988.90
2019-01-27T00:32:43.600Z,988.85
2019-01-27T00:33:43.577Z,988.87
2019-01-27T00:34:43.570Z,988.79
2019-01-27T00:35:43.555Z,988.83
2019-01-27T00:36:43.543Z,988.75
2019-01-27T00:37:43.534Z,988.68
2019-01-27T00:38:43.530Z,988.64
2019-01-27T00:39:43.510Z,988.60
2019-01-27T00:40:43.501Z,988.63
2019-01-27T00:41:43.488Z,988.60
2019-01-27T00:42:43.479Z,988.52
2019-01-27T00:43:43.480Z,988.47
2019-01-27T00:44:43.458Z,988.49
2019-01-27T00:45:43.444Z,988.42
2019-01-27T00:46:43.431Z,988.43
2019-01-27T00:47:43.420Z,988.41
2019-01-27T00:48:43.409Z,988.38
2019-01-27T00:49:43.406Z,988.34
2019-01-27T00:50:43.389Z,988.28
2019-01-27T00:51:43.378Z,988.20
2019-01-27T00:52:43.365Z,988.24
2019-01-27T00:53:43.354Z,988.27
2019-01-27T00:54:43.354Z,988.25
2019-01-27T00:55:43.332Z,988.24
2019-01-27T00:56:43.323Z,988.24
2019-01-27T00:57:43.310Z,988.25
2019-01-27T00:58:43.298Z,988.18
2019-01-27T00:59:43.298Z,988.11
2019-01-27T01:00:43.276Z,988.09
2019-01-27T01:01:43.265Z,988.09
2019-01-27T01:02:43.253Z,988.07
2019-01-27T01:03:43.244Z,988.09
2019-01-27T01:04:43.243Z,988.01
2019-01-27T01:05:43.221Z,988.01
2019-01-27T01:06:43.212Z,987.96
2019-01-27T01:07:43.199Z,987.99
2019-01-27T01:08:43.189Z,987.96
2019-01-27T01:09:43.188Z,987.98
2019-01-27T01:10:43.168Z,987.87
2019-01-27T01:11:43.154Z,987.93
2019-01-27T01:12:43.146Z,987.86
2019-01-27T01:13:43.131Z,987.86
2019-01-27T01:14:43.121Z,987.81
2019-01-27T01:15:43.118Z,987.83
2019-01-27T01:16:43.098Z,987.75
2019-01-27T01:17:43.089Z,987.76
2019-01-27T01:18:43.077Z,987.71
2019-01-27T01:19:43.065Z,987.68
2019-01-27T01:20:43.066Z,987.70
2019-01-27T01:21:43.043Z,987.71
2019-01-27T01:22:43.034Z,987.66
2019-01-27T01:23:43.020Z,987.67
2019-01-27T01:24:43.010Z,987.61
2019-01-27T01:25:42.999Z,987.55
2019-01-27T01:26:43.050Z,987.53
2019-01-27T01:27:42.976Z,987.55
2019-01-27T01:28:42.970Z,987.56
2019-01-27T01:29:42.955Z,987.54
2019-01-27T01:30:42.941Z,987.53
2019-01-27T01:31:42.932Z,987.48
2019-01-27T01:32:42.931Z,987.46
2019-01-27T01:33:42.909Z,987.49
2019-01-27T01:34:42.897Z,987.49
2019-01-27T01:35:42.888Z,987.51
2019-01-27T01:36:42.878Z,987.44
2019-01-27T01:37:42.874Z,987.45
2019-01-27T01:38:42.855Z,987.44
2019-01-27T01:39:42.843Z,987.36
2019-01-27T01:40:42.831Z,987.38
2019-01-27T01:41:42.821Z,987.38
2019-01-27T01:42:42.818Z,987.38
2019-01-27T01:43:42.797Z,987.40
2019-01-27T01:44:42.786Z,987.34
2019-01-27T01:45:42.776Z,987.33
2019-01-27T01:46:42.764Z,987.33
2019-01-27T01:47:42.762Z,987.30
2019-01-27T01:48:42.742Z,987.34
2019-01-27T01:49:42.736Z,987.37
2019-01-27T01:50:42.723Z,987.34
2019-01-27T01:51:42.710Z,987.34
2019-01-27T01:52:42.707Z,987.25
2019-01-27T01:53:42.689Z,987.30
2019-01-27T01:54:42.676Z,987.28
2019-01-27T01:55:42.666Z,987.23
2019-01-27T01:56:42.655Z,987.23
2019-01-27T01:57:42.650Z,987.16
2019-01-27T01:58:42.634Z,987.18
2019-01-27T01:59:42.623Z,987.17
2019-01-27T02:00:42.608Z,987.16
2019-01-27T02:01:42.604Z,987.16
2019-01-27T02:02:42.595Z,987.11
2019-01-27T02:03:42.577Z,987.13
2019-01-27T02:04:42.564Z,987.15
2019-01-27T02:05:42.552Z,987.07
2019-01-27T02:06:42.542Z,987.08
2019-01-27T02:07:42.561Z,987.05
2019-01-27T02:08:42.522Z,987.00
2019-01-27T02:09:42.510Z,986.92
2019-01-27T02:10:42.498Z,986.88
2019-01-27T02:11:42.487Z,986.84
2019-01-27T02:12:42.478Z,986.82
2019-01-27T02:13:42.474Z,986.85
2019-01-27T02:14:42.455Z,986.83
2019-01-27T02:15:42.443Z,986.76
2019-01-27T02:16:42.431Z,986.75
2019-01-27T02:17:42.422Z,986.73
2019-01-27T02:18:42.420Z,986.72
2019-01-27T02:19:42.398Z,986.71
2019-01-27T02:20:42.387Z,986.60
2019-01-27T02:21:42.376Z,986.60
2019-01-27T02:22:42.366Z,986.61
2019-01-27T02:23:42.362Z,986.61
2019-01-27T02:24:42.344Z,986.51
2019-01-27T02:25:42.331Z,986.56
2019-01-27T02:26:42.319Z,986.46
2019-01-27T02:27:42.308Z,986.41
2019-01-27T02:28:42.310Z,986.38
2019-01-27T02:29:42.288Z,986.37
2019-01-27T02:30:42.275Z,986.38
2019-01-27T02:31:42.267Z,986.32
2019-01-27T02:32:42.259Z,986.33
2019-01-27T02:33:42.251Z,986.31
2019-01-27T02:34:42.241Z,986.25
2019-01-27T02:35:42.222Z,986.25
2019-01-27T02:36:42.209Z,986.22
2019-01-27T02:37:42.197Z,986.23
2019-01-27T02:38:42.205Z,986.22
2019-01-27T02:39:42.183Z,986.23
2019-01-27T02:40:42.165Z,986.22
2019-01-27T02:41:42.154Z,986.12
2019-01-27T02:42:42.141Z,986.07
2019-01-27T02:43:42.133Z,986.05
2019-01-27T02:44:42.133Z,986.02
2019-01-27T02:45:42.108Z,986.03
2019-01-27T02:46:42.105Z,986.02
2019-01-27T02:47:42.086Z,985.99
2019-01-27T02:48:42.076Z,985.98
2019-01-27T02:49:42.079Z,985.92
2019-01-27T02:50:42.054Z,985.94
2019-01-27T02:51:42.042Z,985.91
2019-01-27T02:52:42.032Z,985.93
2019-01-27T02:53:42.019Z,985.91
2019-01-27T02:54:42.011Z,985.92
2019-01-27T02:55:42.016Z,985.84
2019-01-27T02:56:41.986Z,985.94
2019-01-27T02:57:41.975Z,985.87
2019-01-27T02:58:41.965Z,985.87
2019-01-27T02:59:41.956Z,985.89
2019-01-27T03:00:41.961Z,985.80
2019-01-27T03:01:41.931Z,985.82
2019-01-27T03:02:41.921Z,985.75
2019-01-27T03:03:41.912Z,985.72
2019-01-27T03:04:41.898Z,985.72
2019-01-27T03:05:41.902Z,985.71
2019-01-27T03:06:41.876Z,985.73
2019-01-27T03:07:41.864Z,985.64
2019-01-27T03:08:41.855Z,985.65
2019-01-27T03:09:41.843Z,985.67
2019-01-27T03:10:41.833Z,985.61
2019-01-27T03:11:41.857Z,985.66
2019-01-27T03:12:41.810Z,985.60
2019-01-27T03:13:41.800Z,985.60
2019-01-27T03:14:41.788Z,985.58
2019-01-27T03:15:41.778Z,985.51
2019-01-27T03:16:41.766Z,985.47
2019-01-27T03:17:41.762Z,985.56
2019-01-27T03:18:41.743Z,985.47
2019-01-27T03:19:41.732Z,985.45
2019-01-27T03:20:41.722Z,985.38
2019-01-27T03:21:41.713Z,985.31
2019-01-27T03:22:41.708Z,985.30
2019-01-27T03:23:41.687Z,985.29
2019-01-27T03:24:41.677Z,985.34
2019-01-27T03:25:41.666Z,985.23
2019-01-27T03:26:41.717Z,985.27
2019-01-27T03:27:41.666Z,985.18
2019-01-27T03:28:41.635Z,985.24
2019-01-27T03:29:41.620Z,985.24
2019-01-27T03:30:41.611Z,985.16
2019-01-27T03:31:41.601Z,985.13
2019-01-27T03:32:41.599Z,985.10
2019-01-27T03:33:41.577Z,985.10
2019-01-27T03:34:41.565Z,985.07
2019-01-27T03:35:41.555Z,985.05
2019-01-27T03:36:41.543Z,984.98
2019-01-27T03:37:41.541Z,984.96
2019-01-27T03:38:41.522Z,984.98
2019-01-27T03:39:41.513Z,984.98
2019-01-27T03:40:41.498Z,984.87
2019-01-27T03:41:41.487Z,984.98
2019-01-27T03:42:41.490Z,984.95
2019-01-27T03:43:41.467Z,984.93
2019-01-27T03:44:41.455Z,984.90
2019-01-27T03:45:41.444Z,984.87
2019-01-27T03:46:41.434Z,984.83
2019-01-27T03:47:41.422Z,984.89
2019-01-27T03:48:41.418Z,984.81
2019-01-27T03:49:41.437Z,984.74
2019-01-27T03:50:41.390Z,984.77
2019-01-27T03:51:41.379Z,984.76
2019-01-27T03:52:41.365Z,984.80
2019-01-27T03:53:41.363Z,984.79
2019-01-27T03:54:41.347Z,984.78
2019-01-27T03:55:41.332Z,984.68
2019-01-27T03:56:41.321Z,984.66
2019-01-27T03:57:41.311Z,984.63
2019-01-27T03:58:41.309Z,984.58
2019-01-27T03:59:41.287Z,984.50
2019-01-27T04:00:41.279Z,984.51
2019-01-27T04:01:41.293Z,984.48
2019-01-27T04:02:41.255Z,984.45
2019-01-27T04:03:41.255Z,984.46
2019-01-27T04:04:41.233Z,984.41
2019-01-27T04:05:41.224Z,984.34
2019-01-27T04:06:41.211Z,984.33
2019-01-27T04:07:41.205Z,984.26
2019-01-27T04:08:41.197Z,984.29
2019-01-27T04:09:41.178Z,984.29
2019-01-27T04:10:41.174Z,984.24
2019-01-27T04:13:10.771Z,984.20
2019-01-27T04:13:49.054Z,984.15
2019-01-27T04:14:49.045Z,984.17
2019-01-27T04:15:49.031Z,984.17
2019-01-27T04:16:49.024Z,984.11
2019-01-27T04:17:49.010Z,984.15
2019-01-27T04:18:49.007Z,984.13
2019-01-27T04:19:48.988Z,984.14
2019-01-27T04:20:48.975Z,984.12
2019-01-27T04:21:48.966Z,984.10
2019-01-27T04:22:48.956Z,984.09
2019-01-27T04:23:48.955Z,984.08
2019-01-27T04:24:48.932Z,984.05
2019-01-27T04:25:48.922Z,984.01
2019-01-27T04:26:48.910Z,984.05
2019-01-27T04:27:48.899Z,984.04
2019-01-27T04:28:48.887Z,983.95
2019-01-27T04:29:48.886Z,983.98
2019-01-27T04:30:48.876Z,983.99
2019-01-27T04:31:48.854Z,983.98
2019-01-27T04:32:48.843Z,983.93
2019-01-27T04:33:48.832Z,983.99
2019-01-27T04:34:48.830Z,983.98
2019-01-27T04:35:48.811Z,983.91
2019-01-27T04:36:48.799Z,983.94
2019-01-27T04:37:48.787Z,983.88
2019-01-27T04:38:48.776Z,983.87
2019-01-27T04:39:48.784Z,983.86
2019-01-27T04:40:48.755Z,983.82
2019-01-27T04:41:48.743Z,983.82
2019-01-27T04:42:48.732Z,983.82
2019-01-27T04:43:48.721Z,983.72
2019-01-27T04:44:48.723Z,983.73
2019-01-27T04:45:48.700Z,983.70
2019-01-27T04:46:48.690Z,983.60
2019-01-27T04:47:48.680Z,983.70
2019-01-27T04:48:48.668Z,983.61
2019-01-27T04:49:48.665Z,983.60
2019-01-27T04:50:48.643Z,983.55
2019-01-27T04:51:48.632Z,983.53
2019-01-27T04:52:48.622Z,983.54
2019-01-27T04:53:48.616Z,983.51
2019-01-27T04:54:48.612Z,983.51
2019-01-27T04:55:48.591Z,983.47
2019-01-27T04:56:48.579Z,983.44
2019-01-27T04:57:48.569Z,983.44
2019-01-27T04:58:48.556Z,983.41
2019-01-27T04:59:48.547Z,983.43
2019-01-27T05:00:48.541Z,983.40
2019-01-27T05:01:48.522Z,983.45
2019-01-27T05:02:48.512Z,983.43
2019-01-27T05:03:48.501Z,983.36
2019-01-27T05:04:48.489Z,983.45
2019-01-27T05:05:48.486Z,983.34
2019-01-27T05:06:48.469Z,983.33
2019-01-27T05:07:48.458Z,983.28
2019-01-27T05:08:48.448Z,983.31
2019-01-27T05:09:48.435Z,983.35
2019-01-27T05:10:48.432Z,983.30
2019-01-27T05:11:48.412Z,983.27
2019-01-27T05:12:48.402Z,983.29
2019-01-27T05:13:48.389Z,983.29
2019-01-27T05:14:48.379Z,983.33
2019-01-27T05:15:48.381Z,983.28
2019-01-27T05:16:48.357Z,983.30
2019-01-27T05:17:48.349Z,983.27
2019-01-27T05:18:48.337Z,983.25
2019-01-27T05:19:48.327Z,983.25
2019-01-27T05:20:48.313Z,983.24
2019-01-27T05:21:48.312Z,983.21
2019-01-27T05:22:48.290Z,983.21
2019-01-27T05:23:48.280Z,983.13
2019-01-27T05:24:48.269Z,983.15
2019-01-27T05:25:48.258Z,983.17
2019-01-27T05:26:48.253Z,983.08
2019-01-27T05:27:48.235Z,983.13
2019-01-27T05:28:48.225Z,983.06
2019-01-27T05:29:48.213Z,983.09
2019-01-27T05:30:48.204Z,983.05
2019-01-27T05:31:48.206Z,983.06
2019-01-27T05:32:48.181Z,983.05
2019-01-27T05:33:48.169Z,983.10
2019-01-27T05:34:48.158Z,983.02
2019-01-27T05:35:48.150Z,983.03
2019-01-27T05:36:48.145Z,983.07
2019-01-27T05:37:48.133Z,983.01
2019-01-27T05:38:48.114Z,982.99
2019-01-27T05:39:48.105Z,983.00
2019-01-27T05:40:48.090Z,983.00
2019-01-27T05:41:48.083Z,982.98
2019-01-27T05:42:48.078Z,982.93
2019-01-27T05:43:48.058Z,982.95
2019-01-27T05:44:48.049Z,982.97
2019-01-27T05:45:48.035Z,982.93
2019-01-27T05:46:48.111Z,982.92
2019-01-27T05:47:48.027Z,982.94
2019-01-27T05:48:48.005Z,982.93
2019-01-27T05:49:47.991Z,982.93
2019-01-27T05:50:47.980Z,982.97
2019-01-27T05:51:47.969Z,982.93
2019-01-27T05:52:48.043Z,982.91
2019-01-27T05:53:47.956Z,982.92
2019-01-27T05:54:47.935Z,982.87
2019-01-27T05:55:47.924Z,982.89
2019-01-27T05:56:47.915Z,982.89
2019-01-27T05:57:47.903Z,982.92
2019-01-27T05:58:47.903Z,982.90
2019-01-27T05:59:47.882Z,982.88
2019-01-27T06:00:47.869Z,982.87
2019-01-27T06:01:47.858Z,982.84
2019-01-27T06:02:47.847Z,982.78
2019-01-27T06:03:47.851Z,982.78
2019-01-27T06:04:47.825Z,982.73
2019-01-27T06:05:47.817Z,982.75
2019-01-27T06:06:47.804Z,982.70
2019-01-27T06:07:47.792Z,982.71
2019-01-27T06:08:47.783Z,982.69
2019-01-27T06:09:47.782Z,982.68
2019-01-27T06:10:47.759Z,982.66
2019-01-27T06:11:47.748Z,982.66
2019-01-27T06:12:47.746Z,982.67
2019-01-27T06:13:47.729Z,982.63
2019-01-27T06:14:47.730Z,982.59
2019-01-27T06:15:47.706Z,982.64
2019-01-27T06:16:47.693Z,982.54
2019-01-27T06:17:47.684Z,982.53
2019-01-27T06:18:47.672Z,982.51
2019-01-27T06:19:47.662Z,982.50
2019-01-27T06:20:47.660Z,982.46
2019-01-27T06:21:47.639Z,982.46
2019-01-27T06:22:47.628Z,982.46
2019-01-27T06:23:47.616Z,982.47
2019-01-27T06:24:47.605Z,982.49
2019-01-27T06:25:47.603Z,982.50
2019-01-27T06:26:47.585Z,982.49
2019-01-27T06:27:47.572Z,982.48
2019-01-27T06:28:47.564Z,982.48
2019-01-27T06:29:47.551Z,982.47
2019-01-27T06:30:47.547Z,982.45
2019-01-27T06:31:47.526Z,982.38
2019-01-27T06:32:47.520Z,982.38
2019-01-27T06:33:47.505Z,982.37
2019-01-27T06:34:47.494Z,982.41
2019-01-27T06:35:47.491Z,982.36
2019-01-27T06:36:47.471Z,982.39
2019-01-27T06:37:47.462Z,982.30
2019-01-27T06:38:47.449Z,982.34
2019-01-27T06:39:47.439Z,982.29
2019-01-27T06:40:47.438Z,982.34
2019-01-27T06:41:47.417Z,982.30
2019-01-27T06:42:47.407Z,982.28
2019-01-27T06:43:47.398Z,982.25
2019-01-27T06:44:47.388Z,982.25
2019-01-27T06:45:47.390Z,982.23
2019-01-27T06:46:47.361Z,982.27
2019-01-27T06:47:47.350Z,982.25
2019-01-27T06:48:47.341Z,982.20
2019-01-27T06:49:47.327Z,982.19
2019-01-27T06:50:47.317Z,982.13
2019-01-27T06:51:47.315Z,982.20
2019-01-27T06:52:47.299Z,982.18
2019-01-27T06:53:47.286Z,982.16
2019-01-27T06:54:47.305Z,982.15
2019-01-27T06:55:47.262Z,982.14
2019-01-27T06:56:47.260Z,982.13
2019-01-27T06:57:47.245Z,982.19
2019-01-27T06:58:47.229Z,982.15
2019-01-27T06:59:47.218Z,982.16
2019-01-27T07:00:47.209Z,982.12
2019-01-27T07:01:47.207Z,982.12
2019-01-27T07:02:47.185Z,982.15
2019-01-27T07:03:47.174Z,982.15
2019-01-27T07:04:47.162Z,982.10
2019-01-27T07:05:47.153Z,982.13
2019-01-27T07:06:47.155Z,982.11
2019-01-27T07:07:47.138Z,982.17
2019-01-27T07:08:47.118Z,982.19
2019-01-27T07:09:47.110Z,982.14
2019-01-27T07:10:47.096Z,982.20
2019-01-27T07:11:47.086Z,982.19
2019-01-27T07:12:47.087Z,982.16
2019-01-27T07:13:47.062Z,982.20
2019-01-27T07:14:47.054Z,982.22
2019-01-27T07:15:47.042Z,982.21
2019-01-27T07:16:47.029Z,982.18
2019-01-27T07:17:47.019Z,982.14
2019-01-27T07:18:47.023Z,982.18
2019-01-27T07:19:47.003Z,982.11
2019-01-27T07:20:46.986Z,982.11
2019-01-27T07:21:46.977Z,982.19
2019-01-27T07:22:46.965Z,982.13
2019-01-27T07:23:46.973Z,982.13
2019-01-27T07:24:46.941Z,982.14
2019-01-27T07:25:46.930Z,982.21
2019-01-27T07:26:46.921Z,982.14
2019-01-27T07:27:46.907Z,982.09
2019-01-27T07:28:46.896Z,982.05
2019-01-27T07:29:46.904Z,982.06
2019-01-27T07:30:46.873Z,981.93
2019-01-27T07:31:46.866Z,982.03
2019-01-27T07:32:46.850Z,981.94
2019-01-27T07:33:46.842Z,981.96
2019-01-27T07:34:46.837Z,981.93
2019-01-27T07:35:46.819Z,981.94
2019-01-27T07:36:46.807Z,981.92
2019-01-27T07:37:46.799Z,981.94
2019-01-27T07:38:46.784Z,981.93
2019-01-27T07:39:46.826Z,981.90
2019-01-27T07:40:46.766Z,981.98
2019-01-27T07:41:46.753Z,981.89
2019-01-27T07:42:46.743Z,981.86
2019-01-27T07:43:46.730Z,981.83
2019-01-27T07:44:46.720Z,981.89
2019-01-27T07:45:46.719Z,981.83
2019-01-27T07:46:46.697Z,981.84
2019-01-27T07:47:46.688Z,981.90
2019-01-27T07:48:46.677Z,981.83
2019-01-27T07:49:46.667Z,981.88
2019-01-27T07:50:46.661Z,981.85
2019-01-27T07:51:46.640Z,981.82
2019-01-27T07:52:46.632Z,981.81
2019-01-27T07:53:46.620Z,981.78
2019-01-27T07:54:46.607Z,981.74
2019-01-27T07:55:46.606Z,981.75
2019-01-27T07:56:46.591Z,981.79
2019-01-27T07:57:46.576Z,981.77
2019-01-27T07:58:46.565Z,981.76
2019-01-27T07:59:46.554Z,981.75
2019-01-27T08:00:46.558Z,981.74
2019-01-27T08:01:46.535Z,981.71
2019-01-27T08:02:46.524Z,981.68
2019-01-27T08:03:46.509Z,981.72
2019-01-27T08:04:46.498Z,981.67
2019-01-27T08:05:46.486Z,981.67
2019-01-27T08:06:46.489Z,981.67
2019-01-27T08:07:46.465Z,981.68
2019-01-27T08:08:46.453Z,981.67
2019-01-27T08:09:46.444Z,981.65
2019-01-27T08:10:46.433Z,981.62
2019-01-27T08:11:46.432Z,981.64
2019-01-27T08:12:46.409Z,981.62
2019-01-27T08:13:46.397Z,981.65
2019-01-27T08:14:46.384Z,981.63
2019-01-27T08:15:46.376Z,981.63
2019-01-27T08:16:46.374Z,981.67
2019-01-27T08:17:46.352Z,981.61
2019-01-27T08:18:46.344Z,981.66
2019-01-27T08:19:46.327Z,981.71
2019-01-27T08:20:46.315Z,981.66
2019-01-27T08:21:46.334Z,981.67
2019-01-27T08:22:46.291Z,981.72
2019-01-27T08:23:46.282Z,981.70
2019-01-27T08:24:46.270Z,981.70
2019-01-27T08:25:46.263Z,981.70
2019-01-27T08:26:46.253Z,981.71
2019-01-27T08:27:46.251Z,981.75
2019-01-27T08:28:46.224Z,981.71
2019-01-27T08:29:46.215Z,981.72
2019-01-27T08:30:46.202Z,981.71
2019-01-27T08:31:46.193Z,981.71
2019-01-27T08:32:46.202Z,981.69
2019-01-27T08:33:46.172Z,981.62
2019-01-27T08:34:46.159Z,981.63
2019-01-27T08:35:46.148Z,981.58
2019-01-27T08:36:46.140Z,981.60
2019-01-27T08:37:46.136Z,981.56
2019-01-27T08:38:46.122Z,981.55
2019-01-27T08:39:46.105Z,981.56
2019-01-27T08:40:46.093Z,981.49
2019-01-27T08:41:46.080Z,981.55
2019-01-27T08:42:46.068Z,981.51
2019-01-27T08:43:46.070Z,981.52
2019-01-27T08:44:46.045Z,981.50
2019-01-27T08:45:46.034Z,981.54
2019-01-27T08:46:46.024Z,981.59
2019-01-27T08:47:46.010Z,981.62
2019-01-27T08:48:45.999Z,981.67
2019-01-27T08:49:46.000Z,981.62
2019-01-27T08:50:45.978Z,981.61
2019-01-27T08:51:45.967Z,981.61
2019-01-27T08:52:45.956Z,981.61
2019-01-27T08:53:45.944Z,981.60
2019-01-27T08:54:45.941Z,981.63
2019-01-27T08:55:45.921Z,981.62
2019-01-27T08:56:45.909Z,981.61
2019-01-27T08:57:45.898Z,981.59
2019-01-27T08:58:45.889Z,981.60
2019-01-27T08:59:45.886Z,981.57
2019-01-27T09:00:45.866Z,981.58
2019-01-27T09:01:45.855Z,981.58
2019-01-27T09:02:45.842Z,981.56
2019-01-27T09:03:45.832Z,981.49
2019-01-27T09:04:45.834Z,981.53
2019-01-27T09:05:45.809Z,981.49
2019-01-27T09:06:45.798Z,981.49
2019-01-27T09:07:45.788Z,981.52
2019-01-27T09:08:45.779Z,981.53
2019-01-27T09:09:45.766Z,981.47
2019-01-27T09:10:45.807Z,981.43
2019-01-27T09:11:45.744Z,981.48
2019-01-27T09:12:45.733Z,981.37
2019-01-27T09:13:45.723Z,981.47
2019-01-27T09:14:45.711Z,981.43
2019-01-27T09:15:45.711Z,981.37
2019-01-27T09:16:45.691Z,981.35
2019-01-27T09:17:45.682Z,981.32
2019-01-27T09:18:45.666Z,981.40
2019-01-27T09:19:45.656Z,981.35
2019-01-27T09:20:45.656Z,981.35
2019-01-27T09:21:45.638Z,981.36
2019-01-27T09:22:45.624Z,981.33
2019-01-27T09:23:45.615Z,981.33
2019-01-27T09:24:45.601Z,981.35
2019-01-27T09:25:45.604Z,981.35
2019-01-27T09:26:45.580Z,981.34
2019-01-27T09:27:45.567Z,981.29
2019-01-27T09:28:45.559Z,981.31
2019-01-27T09:29:45.543Z,981.30
2019-01-27T09:30:45.541Z,981.30
2019-01-27T09:31:45.523Z,981.25
2019-01-27T09:32:45.511Z,981.24
2019-01-27T09:33:45.499Z,981.24
2019-01-27T09:34:45.488Z,981.19
2019-01-27T09:35:45.488Z,981.26
2019-01-27T09:36:45.469Z,981.22
2019-01-27T09:37:45.458Z,981.21
2019-01-27T09:38:45.451Z,981.15
2019-01-27T09:39:45.435Z,981.16
2019-01-27T09:40:45.436Z,981.24
2019-01-27T09:41:45.414Z,981.13
2019-01-27T09:42:45.408Z,981.20
2019-01-27T09:43:45.391Z,981.10
2019-01-27T09:44:45.386Z,981.16
2019-01-27T09:45:57.561Z,981.14
2019-01-27T09:46:46.356Z,981.11
2019-01-27T09:47:45.349Z,981.08
2019-01-27T09:48:45.335Z,981.06
2019-01-27T09:49:45.325Z,981.09
2019-01-27T09:50:45.311Z,981.06
2019-01-27T09:51:45.314Z,980.99
2019-01-27T09:52:45.294Z,980.97
2019-01-27T09:53:45.278Z,981.04
2019-01-27T09:54:45.267Z,981.03
2019-01-27T09:55:45.264Z,981.00
2019-01-27T09:56:45.268Z,981.04
2019-01-27T09:57:45.237Z,980.96
2019-01-27T09:58:45.241Z,980.99
2019-01-27T09:59:45.213Z,981.00
2019-01-27T10:00:45.204Z,981.02
2019-01-27T10:01:45.205Z,981.07
2019-01-27T10:02:45.182Z,981.00
2019-01-27T10:03:45.169Z,981.03
2019-01-27T10:04:45.160Z,981.02
2019-01-27T10:05:45.149Z,981.02
2019-01-27T10:06:45.148Z,980.97
2019-01-27T10:07:45.127Z,981.06
2019-01-27T10:08:45.121Z,981.05
2019-01-27T10:09:45.102Z,980.95
2019-01-27T10:10:45.091Z,981.00
2019-01-27T10:11:45.088Z,980.98
2019-01-27T10:12:45.070Z,980.99
2019-01-27T10:13:45.059Z,980.96
2019-01-27T10:14:45.050Z,980.94
2019-01-27T10:15:45.036Z,980.89
2019-01-27T10:16:45.037Z,980.92
2019-01-27T10:17:45.016Z,980.99
2019-01-27T10:18:45.001Z,980.94
2019-01-27T10:19:44.993Z,980.97
2019-01-27T10:20:44.980Z,980.92
2019-01-27T10:21:44.971Z,980.88
2019-01-27T10:22:44.973Z,980.95
2019-01-27T10:23:44.968Z,980.91
2019-01-27T10:24:44.936Z,980.93
2019-01-27T10:25:44.927Z,980.86
2019-01-27T10:26:44.914Z,980.89
2019-01-27T10:27:44.917Z,980.89
2019-01-27T10:28:44.899Z,980.89
2019-01-27T10:29:44.882Z,980.79
2019-01-27T10:30:44.871Z,980.84
2019-01-27T10:31:44.858Z,980.82
2019-01-27T10:32:44.861Z,980.82
2019-01-27T10:33:44.837Z,980.82
2019-01-27T10:34:44.826Z,980.78
2019-01-27T10:35:44.815Z,980.87
2019-01-27T10:36:44.806Z,980.78
2019-01-27T10:37:44.792Z,980.85
2019-01-27T10:38:44.793Z,980.87
2019-01-27T10:39:44.772Z,980.87
2019-01-27T10:40:44.760Z,980.84
2019-01-27T10:41:44.748Z,980.84
2019-01-27T10:42:44.738Z,980.82
2019-01-27T10:43:44.734Z,980.83
2019-01-27T10:44:44.715Z,980.81
2019-01-27T10:45:44.705Z,980.76
2019-01-27T10:46:44.693Z,980.80
2019-01-27T10:47:44.681Z,980.84
2019-01-27T10:48:44.682Z,980.77
2019-01-27T10:49:44.663Z,980.69
2019-01-27T10:50:44.650Z,980.70
2019-01-27T10:51:44.639Z,980.66
2019-01-27T10:52:44.798Z,980.69
2019-01-27T10:53:44.629Z,980.68
2019-01-27T10:54:44.604Z,980.64
2019-01-27T10:55:44.595Z,980.70
2019-01-27T10:56:44.583Z,980.74
2019-01-27T10:57:44.571Z,980.66
2019-01-27T10:58:44.562Z,980.65
2019-01-27T10:59:44.561Z,980.60
2019-01-27T11:00:44.546Z,980.58
2019-01-27T11:01:44.709Z,980.60
2019-01-27T11:02:44.517Z,980.56
2019-01-27T11:03:44.509Z,980.55
2019-01-27T11:04:44.505Z,980.56
2019-01-27T11:05:44.482Z,980.46
2019-01-27T11:06:44.471Z,980.47
2019-01-27T11:07:44.461Z,980.46
2019-01-27T11:08:44.448Z,980.45
2019-01-27T11:09:44.451Z,980.49
2019-01-27T11:10:44.434Z,980.42
2019-01-27T11:11:44.416Z,980.50
2019-01-27T11:12:44.404Z,980.44
2019-01-27T11:13:44.395Z,980.44
2019-01-27T11:14:44.407Z,980.44
2019-01-27T11:15:44.374Z,980.43
2019-01-27T11:16:44.361Z,980.47
2019-01-27T11:17:44.350Z,980.42
2019-01-27T11:18:44.340Z,980.41
2019-01-27T11:19:44.327Z,980.37
2019-01-27T11:20:45.373Z,980.39
2019-01-27T11:21:44.305Z,980.33
2019-01-27T11:22:44.294Z,980.34
2019-01-27T11:23:44.282Z,980.38
2019-01-27T11:24:44.271Z,980.28
2019-01-27T11:25:44.269Z,980.31
2019-01-27T11:26:44.251Z,980.33
2019-01-27T11:27:44.249Z,980.33
2019-01-27T11:28:44.228Z,980.29
2019-01-27T11:29:44.222Z,980.19
2019-01-27T11:30:44.213Z,980.25
2019-01-27T11:31:44.193Z,980.18
2019-01-27T11:32:44.181Z,980.18
2019-01-27T11:33:44.174Z,980.23
2019-01-27T11:34:44.161Z,980.18
2019-01-27T11:35:44.157Z,980.16
2019-01-27T11:36:44.136Z,980.16
2019-01-27T11:37:44.126Z,980.18
2019-01-27T11:38:44.116Z,980.17
2019-01-27T11:39:44.104Z,980.09
2019-01-27T11:40:44.102Z,980.14
2019-01-27T11:41:44.081Z,980.17
2019-01-27T11:42:44.110Z,980.17
2019-01-27T11:43:44.060Z,980.10
2019-01-27T11:44:44.048Z,980.12
2019-01-27T11:45:44.050Z,980.10
2019-01-27T11:46:44.025Z,980.04
2019-01-27T11:47:44.015Z,980.09
2019-01-27T11:48:44.004Z,980.05
2019-01-27T11:49:43.992Z,980.10
2019-01-27T11:50:43.994Z,980.05
2019-01-27T11:51:44.284Z,979.98
2019-01-27T11:52:43.960Z,980.02
2019-01-27T11:53:43.947Z,980.02
2019-01-27T11:54:43.938Z,980.01
2019-01-27T11:55:43.926Z,980.00
2019-01-27T11:56:43.922Z,980.00
2019-01-27T11:57:43.902Z,980.08
2019-01-27T11:58:43.891Z,980.03
2019-01-27T11:59:43.880Z,979.95
2019-01-27T12:00:43.868Z,980.08
2019-01-27T12:01:43.867Z,980.10
2019-01-27T12:02:46.745Z,979.99
2019-01-27T12:03:43.836Z,979.99
2019-01-27T12:04:43.825Z,980.02
2019-01-27T12:05:43.813Z,980.02
2019-01-27T12:06:43.811Z,979.96
2019-01-27T12:07:43.791Z,979.97
2019-01-27T12:08:43.793Z,979.91
2019-01-27T12:09:43.773Z,979.96
2019-01-27T12:10:43.758Z,979.96
2019-01-27T12:11:43.755Z,979.97
2019-01-27T12:12:43.738Z,979.99
2019-01-27T12:13:43.727Z,980.00
2019-01-27T12:14:43.715Z,980.04
2019-01-27T12:15:43.704Z,979.91
2019-01-27T12:16:43.702Z,979.87
2019-01-27T12:17:43.682Z,979.93
2019-01-27T12:18:43.669Z,979.94
2019-01-27T12:19:43.658Z,979.95
2019-01-27T12:20:43.647Z,979.89
2019-01-27T12:21:43.646Z,979.94
2019-01-27T12:22:43.629Z,979.89
2019-01-27T12:23:43.616Z,979.89
2019-01-27T12:24:43.605Z,979.89
2019-01-27T12:25:43.594Z,979.93
2019-01-27T12:26:43.591Z,979.90
2019-01-27T12:27:48.372Z,979.96
2019-01-27T12:28:48.322Z,980.00
2019-01-27T12:29:48.311Z,979.94